sensor_id;sensor_type;location;lat;lon;timestamp;P1;durP1;ratioP1;P2;durP2;ratioP2
22883;SDS011;13386;24.786;110.488;2023-10-31T00:02:04;43.40;;;17.55;;
22883;SDS011;13386;24.786;110.488;2023-10-31T00:04:36;44.42;;;17.67;;
22883;SDS011;13386;24.786;110.488;2023-10-31T00:07:06;48.65;;;18.63;;
22883;SDS011;13386;24.786;110.488;2023-10-31T00:09:37;41.90;;;16.80;;
22883;SDS011;13386;24.786;110.488;2023-10-31T00:12:07;48.67;;;19.00;;
22883;SDS011;13386;24.786;110.488;2023-10-31T00:14:39;41.58;;;17.75;;
22883;SDS011;13386;24.786;110.488;2023-10-31T00:17:09;44.67;;;17.88;;
22883;SDS011;13386;24.786;110.488;2023-10-31T00:19:43;51.30;;;19.10;;
22883;SDS011;13386;24.786;110.488;2023-10-31T00:22:13;48.30;;;18.73;;
22883;SDS011;13386;24.786;110.488;2023-10-31T00:24:43;47.88;;;18.55;;
22883;SDS011;13386;24.786;110.488;2023-10-31T00:27:13;54.05;;;19.63;;
22883;SDS011;13386;24.786;110.488;2023-10-31T00:29:43;56.33;;;19.73;;
22883;SDS011;13386;24.786;110.488;2023-10-31T00:32:13;53.38;;;20.00;;
22883;SDS011;13386;24.786;110.488;2023-10-31T00:34:45;61.95;;;20.45;;
22883;SDS011;13386;24.786;110.488;2023-10-31T00:37:16;54.60;;;20.88;;
22883;SDS011;13386;24.786;110.488;2023-10-31T00:39:46;51.53;;;20.38;;
22883;SDS011;13386;24.786;110.488;2023-10-31T00:42:16;51.22;;;19.83;;
22883;SDS011;13386;24.786;110.488;2023-10-31T00:44:46;49.03;;;19.70;;
22883;SDS011;13386;24.786;110.488;2023-10-31T00:47:16;53.95;;;19.70;;
22883;SDS011;13386;24.786;110.488;2023-10-31T00:49:48;48.53;;;20.17;;
22883;SDS011;13386;24.786;110.488;2023-10-31T00:52:20;59.83;;;21.02;;
22883;SDS011;13386;24.786;110.488;2023-10-31T00:54:50;54.45;;;21.85;;
22883;SDS011;13386;24.786;110.488;2023-10-31T00:57:20;56.08;;;21.55;;
22883;SDS011;13386;24.786;110.488;2023-10-31T00:59:50;48.75;;;19.65;;
22883;SDS011;13386;24.786;110.488;2023-10-31T01:02:20;56.15;;;20.83;;
22883;SDS011;13386;24.786;110.488;2023-10-31T01:04:53;52.88;;;20.27;;
22883;SDS011;13386;24.786;110.488;2023-10-31T01:07:26;52.38;;;20.83;;
22883;SDS011;13386;24.786;110.488;2023-10-31T01:09:56;55.65;;;22.60;;
22883;SDS011;13386;24.786;110.488;2023-10-31T01:12:28;57.33;;;22.58;;
22883;SDS011;13386;24.786;110.488;2023-10-31T01:14:58;56.47;;;21.63;;
22883;SDS011;13386;24.786;110.488;2023-10-31T01:17:28;46.97;;;20.33;;
22883;SDS011;13386;24.786;110.488;2023-10-31T01:20:00;49.40;;;19.67;;
22883;SDS011;13386;24.786;110.488;2023-10-31T01:22:31;50.90;;;20.15;;
22883;SDS011;13386;24.786;110.488;2023-10-31T01:25:03;46.25;;;19.70;;
22883;SDS011;13386;24.786;110.488;2023-10-31T01:27:33;51.95;;;20.05;;
22883;SDS011;13386;24.786;110.488;2023-10-31T01:30:04;47.17;;;18.60;;
22883;SDS011;13386;24.786;110.488;2023-10-31T01:32:35;42.50;;;17.73;;
22883;SDS011;13386;24.786;110.488;2023-10-31T01:35:07;42.72;;;18.92;;
22883;SDS011;13386;24.786;110.488;2023-10-31T01:37:38;45.35;;;18.92;;
22883;SDS011;13386;24.786;110.488;2023-10-31T01:40:12;47.85;;;19.73;;
22883;SDS011;13386;24.786;110.488;2023-10-31T01:42:42;46.88;;;20.00;;
22883;SDS011;13386;24.786;110.488;2023-10-31T01:45:12;47.20;;;19.38;;
22883;SDS011;13386;24.786;110.488;2023-10-31T01:47:43;46.10;;;19.67;;
22883;SDS011;13386;24.786;110.488;2023-10-31T01:50:20;45.00;;;19.73;;
22883;SDS011;13386;24.786;110.488;2023-10-31T01:52:51;42.42;;;18.40;;
22883;SDS011;13386;24.786;110.488;2023-10-31T01:55:21;42.05;;;18.73;;
22883;SDS011;13386;24.786;110.488;2023-10-31T01:57:55;43.95;;;19.00;;
22883;SDS011;13386;24.786;110.488;2023-10-31T02:00:25;44.75;;;19.15;;
22883;SDS011;13386;24.786;110.488;2023-10-31T02:02:54;47.65;;;19.20;;
22883;SDS011;13386;24.786;110.488;2023-10-31T02:05:28;40.90;;;18.85;;
22883;SDS011;13386;24.786;110.488;2023-10-31T02:07:59;41.50;;;18.63;;
22883;SDS011;13386;24.786;110.488;2023-10-31T02:10:31;44.47;;;18.25;;
22883;SDS011;13386;24.786;110.488;2023-10-31T02:13:10;38.85;;;17.35;;
22883;SDS011;13386;24.786;110.488;2023-10-31T02:15:43;39.92;;;17.95;;
22883;SDS011;13386;24.786;110.488;2023-10-31T02:18:21;43.08;;;18.23;;
22883;SDS011;13386;24.786;110.488;2023-10-31T02:20:53;38.97;;;17.08;;
22883;SDS011;13386;24.786;110.488;2023-10-31T02:23:25;40.90;;;18.27;;
22883;SDS011;13386;24.786;110.488;2023-10-31T02:25:56;44.95;;;17.08;;
22883;SDS011;13386;24.786;110.488;2023-10-31T02:28:26;41.97;;;17.73;;
22883;SDS011;13386;24.786;110.488;2023-10-31T02:30:56;37.72;;;16.55;;
22883;SDS011;13386;24.786;110.488;2023-10-31T02:33:27;40.63;;;16.70;;
22883;SDS011;13386;24.786;110.488;2023-10-31T02:35:57;36.92;;;17.33;;
22883;SDS011;13386;24.786;110.488;2023-10-31T02:38:30;37.30;;;16.77;;
22883;SDS011;13386;24.786;110.488;2023-10-31T02:41:01;37.40;;;15.82;;
22883;SDS011;13386;24.786;110.488;2023-10-31T02:43:31;39.67;;;16.10;;
22883;SDS011;13386;24.786;110.488;2023-10-31T02:46:01;36.55;;;16.05;;
22883;SDS011;13386;24.786;110.488;2023-10-31T02:48:33;36.42;;;15.93;;
22883;SDS011;13386;24.786;110.488;2023-10-31T02:51:09;40.70;;;16.63;;
22883;SDS011;13386;24.786;110.488;2023-10-31T02:53:41;40.47;;;16.67;;
22883;SDS011;13386;24.786;110.488;2023-10-31T02:56:11;37.28;;;15.82;;
22883;SDS011;13386;24.786;110.488;2023-10-31T02:58:43;36.15;;;15.43;;
22883;SDS011;13386;24.786;110.488;2023-10-31T03:01:14;39.97;;;16.52;;
22883;SDS011;13386;24.786;110.488;2023-10-31T03:03:44;35.65;;;15.65;;
22883;SDS011;13386;24.786;110.488;2023-10-31T03:06:16;38.30;;;16.33;;
22883;SDS011;13386;24.786;110.488;2023-10-31T03:08:47;35.72;;;15.63;;
22883;SDS011;13386;24.786;110.488;2023-10-31T03:11:22;35.22;;;14.25;;
22883;SDS011;13386;24.786;110.488;2023-10-31T03:13:52;32.78;;;14.30;;
22883;SDS011;13386;24.786;110.488;2023-10-31T03:16:23;34.25;;;13.60;;
22883;SDS011;13386;24.786;110.488;2023-10-31T03:18:54;34.33;;;14.10;;
22883;SDS011;13386;24.786;110.488;2023-10-31T03:21:26;36.25;;;14.85;;
22883;SDS011;13386;24.786;110.488;2023-10-31T03:26:54;33.35;;;13.93;;
22883;SDS011;13386;24.786;110.488;2023-10-31T03:29:41;33.50;;;13.43;;
22883;SDS011;13386;24.786;110.488;2023-10-31T03:32:11;30.92;;;13.70;;
22883;SDS011;13386;24.786;110.488;2023-10-31T03:34:44;29.33;;;12.70;;
22883;SDS011;13386;24.786;110.488;2023-10-31T03:37:15;32.75;;;12.90;;
22883;SDS011;13386;24.786;110.488;2023-10-31T03:39:46;26.90;;;11.90;;
22883;SDS011;13386;24.786;110.488;2023-10-31T03:42:18;26.15;;;12.27;;
22883;SDS011;13386;24.786;110.488;2023-10-31T03:44:49;28.75;;;12.32;;
22883;SDS011;13386;24.786;110.488;2023-10-31T03:47:20;29.00;;;11.20;;
22883;SDS011;13386;24.786;110.488;2023-10-31T03:49:53;27.23;;;11.70;;
22883;SDS011;13386;24.786;110.488;2023-10-31T03:52:23;26.92;;;11.07;;
22883;SDS011;13386;24.786;110.488;2023-10-31T03:54:55;26.00;;;11.95;;
22883;SDS011;13386;24.786;110.488;2023-10-31T03:57:27;28.13;;;11.98;;
22883;SDS011;13386;24.786;110.488;2023-10-31T03:59:57;24.40;;;11.73;;
22883;SDS011;13386;24.786;110.488;2023-10-31T04:02:28;25.48;;;11.65;;
22883;SDS011;13386;24.786;110.488;2023-10-31T04:05:10;26.20;;;11.65;;
22883;SDS011;13386;24.786;110.488;2023-10-31T04:07:42;25.60;;;11.73;;
22883;SDS011;13386;24.786;110.488;2023-10-31T04:10:17;26.33;;;12.00;;
22883;SDS011;13386;24.786;110.488;2023-10-31T04:12:49;25.67;;;11.82;;
22883;SDS011;13386;24.786;110.488;2023-10-31T04:15:20;26.60;;;11.40;;
22883;SDS011;13386;24.786;110.488;2023-10-31T04:17:50;27.13;;;11.55;;
22883;SDS011;13386;24.786;110.488;2023-10-31T04:20:23;28.50;;;12.27;;
22883;SDS011;13386;24.786;110.488;2023-10-31T04:22:55;28.60;;;12.48;;
22883;SDS011;13386;24.786;110.488;2023-10-31T04:25:26;27.65;;;11.35;;
22883;SDS011;13386;24.786;110.488;2023-10-31T04:28:01;31.60;;;12.02;;
22883;SDS011;13386;24.786;110.488;2023-10-31T04:30:32;31.55;;;12.00;;
22883;SDS011;13386;24.786;110.488;2023-10-31T04:33:02;27.20;;;11.55;;
22883;SDS011;13386;24.786;110.488;2023-10-31T04:35:34;29.90;;;12.20;;
22883;SDS011;13386;24.786;110.488;2023-10-31T04:38:06;40.25;;;15.05;;
22883;SDS011;13386;24.786;110.488;2023-10-31T04:40:50;31.03;;;12.90;;
22883;SDS011;13386;24.786;110.488;2023-10-31T04:43:22;29.17;;;12.23;;
22883;SDS011;13386;24.786;110.488;2023-10-31T04:45:52;27.77;;;12.13;;
22883;SDS011;13386;24.786;110.488;2023-10-31T04:48:24;28.20;;;11.75;;
22883;SDS011;13386;24.786;110.488;2023-10-31T04:50:55;27.48;;;11.68;;
22883;SDS011;13386;24.786;110.488;2023-10-31T04:53:26;28.23;;;12.10;;
22883;SDS011;13386;24.786;110.488;2023-10-31T04:55:56;24.73;;;11.40;;
22883;SDS011;13386;24.786;110.488;2023-10-31T04:58:30;26.92;;;11.55;;
22883;SDS011;13386;24.786;110.488;2023-10-31T05:01:03;25.52;;;11.32;;
22883;SDS011;13386;24.786;110.488;2023-10-31T05:03:49;23.65;;;11.50;;
22883;SDS011;13386;24.786;110.488;2023-10-31T05:06:21;26.45;;;12.18;;
22883;SDS011;13386;24.786;110.488;2023-10-31T05:08:53;28.63;;;11.77;;
22883;SDS011;13386;24.786;110.488;2023-10-31T05:11:25;24.08;;;10.73;;
22883;SDS011;13386;24.786;110.488;2023-10-31T05:14:13;26.05;;;11.02;;
22883;SDS011;13386;24.786;110.488;2023-10-31T05:16:44;28.65;;;11.35;;
22883;SDS011;13386;24.786;110.488;2023-10-31T05:19:16;31.30;;;12.05;;
22883;SDS011;13386;24.786;110.488;2023-10-31T05:21:47;22.27;;;11.18;;
22883;SDS011;13386;24.786;110.488;2023-10-31T05:24:18;26.25;;;11.90;;
22883;SDS011;13386;24.786;110.488;2023-10-31T05:26:51;28.77;;;11.73;;
22883;SDS011;13386;24.786;110.488;2023-10-31T05:29:26;21.73;;;10.70;;
22883;SDS011;13386;24.786;110.488;2023-10-31T05:32:03;26.48;;;11.35;;
22883;SDS011;13386;24.786;110.488;2023-10-31T05:34:35;25.95;;;10.82;;
22883;SDS011;13386;24.786;110.488;2023-10-31T05:39:42;22.15;;;10.35;;
22883;SDS011;13386;24.786;110.488;2023-10-31T05:42:12;26.67;;;10.90;;
22883;SDS011;13386;24.786;110.488;2023-10-31T05:44:48;23.60;;;10.43;;
22883;SDS011;13386;24.786;110.488;2023-10-31T05:47:19;24.23;;;10.27;;
22883;SDS011;13386;24.786;110.488;2023-10-31T05:49:50;25.70;;;10.63;;
22883;SDS011;13386;24.786;110.488;2023-10-31T05:52:27;28.73;;;11.80;;
22883;SDS011;13386;24.786;110.488;2023-10-31T05:54:58;29.48;;;10.20;;
22883;SDS011;13386;24.786;110.488;2023-10-31T05:57:29;26.70;;;10.75;;
22883;SDS011;13386;24.786;110.488;2023-10-31T06:00:02;24.40;;;10.48;;
22883;SDS011;13386;24.786;110.488;2023-10-31T06:02:40;27.25;;;11.07;;
22883;SDS011;13386;24.786;110.488;2023-10-31T06:05:10;26.70;;;10.65;;
22883;SDS011;13386;24.786;110.488;2023-10-31T06:07:40;21.23;;;10.50;;
22883;SDS011;13386;24.786;110.488;2023-10-31T06:10:32;22.33;;;9.73;;
22883;SDS011;13386;24.786;110.488;2023-10-31T06:13:02;21.92;;;9.60;;
22883;SDS011;13386;24.786;110.488;2023-10-31T06:15:34;24.40;;;10.20;;
22883;SDS011;13386;24.786;110.488;2023-10-31T06:18:05;22.92;;;10.27;;
22883;SDS011;13386;24.786;110.488;2023-10-31T06:20:45;22.08;;;9.95;;
22883;SDS011;13386;24.786;110.488;2023-10-31T06:23:15;19.67;;;8.85;;
22883;SDS011;13386;24.786;110.488;2023-10-31T06:25:48;19.70;;;8.95;;
22883;SDS011;13386;24.786;110.488;2023-10-31T06:28:20;19.65;;;8.52;;
22883;SDS011;13386;24.786;110.488;2023-10-31T06:30:54;18.70;;;8.88;;
22883;SDS011;13386;24.786;110.488;2023-10-31T06:33:24;16.67;;;8.43;;
22883;SDS011;13386;24.786;110.488;2023-10-31T06:35:55;20.90;;;9.05;;
22883;SDS011;13386;24.786;110.488;2023-10-31T06:38:25;24.30;;;9.65;;
22883;SDS011;13386;24.786;110.488;2023-10-31T06:40:55;18.35;;;8.90;;
22883;SDS011;13386;24.786;110.488;2023-10-31T06:43:33;20.88;;;8.68;;
22883;SDS011;13386;24.786;110.488;2023-10-31T06:46:07;27.80;;;10.50;;
22883;SDS011;13386;24.786;110.488;2023-10-31T06:48:39;26.42;;;10.57;;
22883;SDS011;13386;24.786;110.488;2023-10-31T06:51:10;25.55;;;9.82;;
22883;SDS011;13386;24.786;110.488;2023-10-31T06:53:51;23.27;;;9.98;;
22883;SDS011;13386;24.786;110.488;2023-10-31T06:56:21;21.50;;;9.38;;
22883;SDS011;13386;24.786;110.488;2023-10-31T06:58:54;26.02;;;9.15;;
22883;SDS011;13386;24.786;110.488;2023-10-31T07:01:28;17.70;;;8.40;;
22883;SDS011;13386;24.786;110.488;2023-10-31T07:03:59;23.40;;;9.57;;
22883;SDS011;13386;24.786;110.488;2023-10-31T07:06:29;20.38;;;9.02;;
22883;SDS011;13386;24.786;110.488;2023-10-31T07:09:00;19.88;;;9.25;;
22883;SDS011;13386;24.786;110.488;2023-10-31T07:11:32;19.88;;;9.10;;
22883;SDS011;13386;24.786;110.488;2023-10-31T07:14:03;24.27;;;8.95;;
22883;SDS011;13386;24.786;110.488;2023-10-31T07:16:39;20.73;;;9.68;;
22883;SDS011;13386;24.786;110.488;2023-10-31T07:19:11;23.90;;;9.57;;
22883;SDS011;13386;24.786;110.488;2023-10-31T07:21:41;28.52;;;10.75;;
22883;SDS011;13386;24.786;110.488;2023-10-31T07:24:12;25.33;;;10.40;;
22883;SDS011;13386;24.786;110.488;2023-10-31T07:26:54;22.02;;;10.02;;
22883;SDS011;13386;24.786;110.488;2023-10-31T07:29:26;25.85;;;10.00;;
22883;SDS011;13386;24.786;110.488;2023-10-31T07:31:58;29.98;;;10.77;;
22883;SDS011;13386;24.786;110.488;2023-10-31T07:34:30;20.70;;;8.88;;
22883;SDS011;13386;24.786;110.488;2023-10-31T07:37:06;19.23;;;8.85;;
22883;SDS011;13386;24.786;110.488;2023-10-31T07:39:37;19.75;;;9.60;;
22883;SDS011;13386;24.786;110.488;2023-10-31T07:42:08;23.08;;;9.13;;
22883;SDS011;13386;24.786;110.488;2023-10-31T07:44:39;21.40;;;8.75;;
22883;SDS011;13386;24.786;110.488;2023-10-31T07:47:13;21.00;;;8.88;;
22883;SDS011;13386;24.786;110.488;2023-10-31T07:49:45;21.08;;;9.02;;
22883;SDS011;13386;24.786;110.488;2023-10-31T07:52:17;20.50;;;8.93;;
22883;SDS011;13386;24.786;110.488;2023-10-31T07:54:47;18.15;;;8.88;;
22883;SDS011;13386;24.786;110.488;2023-10-31T07:57:19;21.50;;;8.55;;
22883;SDS011;13386;24.786;110.488;2023-10-31T07:59:49;21.23;;;9.30;;
22883;SDS011;13386;24.786;110.488;2023-10-31T08:02:26;17.48;;;8.27;;
22883;SDS011;13386;24.786;110.488;2023-10-31T08:04:57;23.58;;;9.25;;
22883;SDS011;13386;24.786;110.488;2023-10-31T08:07:41;20.07;;;9.03;;
22883;SDS011;13386;24.786;110.488;2023-10-31T08:10:12;26.60;;;9.77;;
22883;SDS011;13386;24.786;110.488;2023-10-31T08:12:42;19.35;;;9.27;;
22883;SDS011;13386;24.786;110.488;2023-10-31T08:15:12;22.65;;;9.95;;
22883;SDS011;13386;24.786;110.488;2023-10-31T08:17:47;19.00;;;8.68;;
22883;SDS011;13386;24.786;110.488;2023-10-31T08:20:19;25.40;;;9.10;;
22883;SDS011;13386;24.786;110.488;2023-10-31T08:22:51;20.83;;;9.13;;
22883;SDS011;13386;24.786;110.488;2023-10-31T08:25:28;20.42;;;9.35;;
22883;SDS011;13386;24.786;110.488;2023-10-31T08:27:58;21.80;;;9.48;;
22883;SDS011;13386;24.786;110.488;2023-10-31T08:30:54;22.05;;;8.95;;
22883;SDS011;13386;24.786;110.488;2023-10-31T08:33:29;20.70;;;9.15;;
22883;SDS011;13386;24.786;110.488;2023-10-31T08:35:59;25.02;;;9.07;;
22883;SDS011;13386;24.786;110.488;2023-10-31T08:38:32;18.65;;;8.90;;
22883;SDS011;13386;24.786;110.488;2023-10-31T08:41:02;26.00;;;8.90;;
22883;SDS011;13386;24.786;110.488;2023-10-31T08:43:32;24.35;;;8.85;;
22883;SDS011;13386;24.786;110.488;2023-10-31T08:46:05;18.75;;;8.68;;
22883;SDS011;13386;24.786;110.488;2023-10-31T08:48:38;19.15;;;8.20;;
22883;SDS011;13386;24.786;110.488;2023-10-31T08:51:10;18.45;;;8.50;;
22883;SDS011;13386;24.786;110.488;2023-10-31T08:53:40;19.13;;;8.68;;
22883;SDS011;13386;24.786;110.488;2023-10-31T08:56:11;19.45;;;8.43;;
22883;SDS011;13386;24.786;110.488;2023-10-31T08:58:41;20.23;;;8.55;;
22883;SDS011;13386;24.786;110.488;2023-10-31T09:01:13;20.00;;;8.27;;
22883;SDS011;13386;24.786;110.488;2023-10-31T09:03:46;19.55;;;8.70;;
22883;SDS011;13386;24.786;110.488;2023-10-31T09:06:16;20.83;;;9.05;;
22883;SDS011;13386;24.786;110.488;2023-10-31T09:08:46;17.95;;;8.15;;
22883;SDS011;13386;24.786;110.488;2023-10-31T09:11:17;20.48;;;8.63;;
22883;SDS011;13386;24.786;110.488;2023-10-31T09:13:49;27.73;;;10.10;;
22883;SDS011;13386;24.786;110.488;2023-10-31T09:16:19;23.20;;;8.70;;
22883;SDS011;13386;24.786;110.488;2023-10-31T09:18:52;20.90;;;8.75;;
22883;SDS011;13386;24.786;110.488;2023-10-31T09:21:22;18.10;;;8.40;;
22883;SDS011;13386;24.786;110.488;2023-10-31T09:23:52;19.77;;;8.07;;
22883;SDS011;13386;24.786;110.488;2023-10-31T09:26:23;17.85;;;7.93;;
22883;SDS011;13386;24.786;110.488;2023-10-31T09:28:53;19.60;;;8.20;;
22883;SDS011;13386;24.786;110.488;2023-10-31T09:31:23;20.00;;;8.90;;
22883;SDS011;13386;24.786;110.488;2023-10-31T09:33:56;18.73;;;8.05;;
22883;SDS011;13386;24.786;110.488;2023-10-31T09:36:26;19.35;;;8.65;;
22883;SDS011;13386;24.786;110.488;2023-10-31T09:38:56;21.48;;;8.75;;
22883;SDS011;13386;24.786;110.488;2023-10-31T09:41:36;18.05;;;7.80;;
22883;SDS011;13386;24.786;110.488;2023-10-31T09:44:06;18.75;;;8.50;;
22883;SDS011;13386;24.786;110.488;2023-10-31T09:46:39;33.03;;;9.80;;
22883;SDS011;13386;24.786;110.488;2023-10-31T09:49:14;36.67;;;11.27;;
22883;SDS011;13386;24.786;110.488;2023-10-31T09:51:45;78.00;;;15.95;;
22883;SDS011;13386;24.786;110.488;2023-10-31T09:54:17;30.17;;;9.50;;
22883;SDS011;13386;24.786;110.488;2023-10-31T09:56:47;30.40;;;10.05;;
22883;SDS011;13386;24.786;110.488;2023-10-31T09:59:17;29.48;;;10.13;;
22883;SDS011;13386;24.786;110.488;2023-10-31T10:01:47;26.25;;;9.52;;
22883;SDS011;13386;24.786;110.488;2023-10-31T10:04:19;36.03;;;11.25;;
22883;SDS011;13386;24.786;110.488;2023-10-31T10:06:51;20.77;;;8.35;;
22883;SDS011;13386;24.786;110.488;2023-10-31T10:09:21;28.20;;;9.57;;
22883;SDS011;13386;24.786;110.488;2023-10-31T10:11:52;29.00;;;9.82;;
22883;SDS011;13386;24.786;110.488;2023-10-31T10:14:23;22.40;;;8.63;;
22883;SDS011;13386;24.786;110.488;2023-10-31T10:16:54;20.50;;;8.27;;
22883;SDS011;13386;24.786;110.488;2023-10-31T10:19:30;29.48;;;9.82;;
22883;SDS011;13386;24.786;110.488;2023-10-31T10:22:03;20.60;;;8.68;;
22883;SDS011;13386;24.786;110.488;2023-10-31T10:24:34;50.83;;;11.50;;
22883;SDS011;13386;24.786;110.488;2023-10-31T10:27:04;40.00;;;10.35;;
22883;SDS011;13386;24.786;110.488;2023-10-31T10:29:39;28.83;;;10.23;;
22883;SDS011;13386;24.786;110.488;2023-10-31T10:32:10;31.58;;;10.77;;
22883;SDS011;13386;24.786;110.488;2023-10-31T10:35:04;34.47;;;11.32;;
22883;SDS011;13386;24.786;110.488;2023-10-31T10:37:35;37.63;;;11.48;;
22883;SDS011;13386;24.786;110.488;2023-10-31T10:40:07;36.67;;;10.98;;
22883;SDS011;13386;24.786;110.488;2023-10-31T10:42:40;42.10;;;12.45;;
22883;SDS011;13386;24.786;110.488;2023-10-31T10:45:11;36.03;;;12.07;;
22883;SDS011;13386;24.786;110.488;2023-10-31T10:47:43;37.85;;;11.05;;
22883;SDS011;13386;24.786;110.488;2023-10-31T10:50:19;48.00;;;12.10;;
22883;SDS011;13386;24.786;110.488;2023-10-31T10:53:00;38.10;;;10.85;;
22883;SDS011;13386;24.786;110.488;2023-10-31T10:55:36;23.95;;;9.55;;
22883;SDS011;13386;24.786;110.488;2023-10-31T10:58:12;23.65;;;10.02;;
22883;SDS011;13386;24.786;110.488;2023-10-31T11:00:44;24.80;;;9.90;;
22883;SDS011;13386;24.786;110.488;2023-10-31T11:03:19;25.08;;;9.68;;
22883;SDS011;13386;24.786;110.488;2023-10-31T11:05:56;22.50;;;9.60;;
22883;SDS011;13386;24.786;110.488;2023-10-31T11:08:27;22.83;;;9.30;;
22883;SDS011;13386;24.786;110.488;2023-10-31T11:11:05;23.92;;;10.13;;
22883;SDS011;13386;24.786;110.488;2023-10-31T11:13:36;32.60;;;11.10;;
22883;SDS011;13386;24.786;110.488;2023-10-31T11:16:29;36.45;;;13.18;;
22883;SDS011;13386;24.786;110.488;2023-10-31T11:19:01;37.20;;;13.55;;
22883;SDS011;13386;24.786;110.488;2023-10-31T11:21:33;37.20;;;14.00;;
22883;SDS011;13386;24.786;110.488;2023-10-31T11:24:26;36.92;;;13.80;;
22883;SDS011;13386;24.786;110.488;2023-10-31T11:26:58;34.65;;;14.23;;
22883;SDS011;13386;24.786;110.488;2023-10-31T11:29:30;34.63;;;13.63;;
22883;SDS011;13386;24.786;110.488;2023-10-31T11:32:00;51.17;;;17.33;;
22883;SDS011;13386;24.786;110.488;2023-10-31T11:34:36;46.80;;;17.20;;
22883;SDS011;13386;24.786;110.488;2023-10-31T11:37:26;38.60;;;15.20;;
22883;SDS011;13386;24.786;110.488;2023-10-31T11:42:51;32.75;;;12.45;;
22883;SDS011;13386;24.786;110.488;2023-10-31T11:45:27;32.05;;;12.57;;
22883;SDS011;13386;24.786;110.488;2023-10-31T11:47:58;33.88;;;13.27;;
22883;SDS011;13386;24.786;110.488;2023-10-31T11:50:29;28.05;;;13.05;;
22883;SDS011;13386;24.786;110.488;2023-10-31T11:53:02;34.15;;;12.88;;
22883;SDS011;13386;24.786;110.488;2023-10-31T11:55:40;35.83;;;14.57;;
22883;SDS011;13386;24.786;110.488;2023-10-31T11:58:14;37.08;;;14.73;;
22883;SDS011;13386;24.786;110.488;2023-10-31T12:00:45;31.10;;;12.85;;
22883;SDS011;13386;24.786;110.488;2023-10-31T12:03:17;39.53;;;15.07;;
22883;SDS011;13386;24.786;110.488;2023-10-31T12:05:54;37.42;;;14.10;;
22883;SDS011;13386;24.786;110.488;2023-10-31T12:08:51;36.42;;;13.40;;
22883;SDS011;13386;24.786;110.488;2023-10-31T12:11:24;35.55;;;13.13;;
22883;SDS011;13386;24.786;110.488;2023-10-31T12:13:58;29.92;;;12.73;;
22883;SDS011;13386;24.786;110.488;2023-10-31T12:16:29;42.47;;;14.23;;
22883;SDS011;13386;24.786;110.488;2023-10-31T12:19:03;33.33;;;12.27;;
22883;SDS011;13386;24.786;110.488;2023-10-31T12:21:35;34.90;;;12.60;;
22883;SDS011;13386;24.786;110.488;2023-10-31T12:24:07;29.80;;;11.93;;
22883;SDS011;13386;24.786;110.488;2023-10-31T12:26:38;27.60;;;11.73;;
22883;SDS011;13386;24.786;110.488;2023-10-31T12:29:10;31.13;;;11.68;;
22883;SDS011;13386;24.786;110.488;2023-10-31T12:31:55;34.67;;;14.02;;
22883;SDS011;13386;24.786;110.488;2023-10-31T12:34:30;30.17;;;11.95;;
22883;SDS011;13386;24.786;110.488;2023-10-31T12:37:01;27.43;;;12.30;;
22883;SDS011;13386;24.786;110.488;2023-10-31T12:39:40;28.77;;;11.13;;
22883;SDS011;13386;24.786;110.488;2023-10-31T12:42:16;27.27;;;11.95;;
22883;SDS011;13386;24.786;110.488;2023-10-31T12:45:04;26.52;;;11.02;;
22883;SDS011;13386;24.786;110.488;2023-10-31T12:47:40;27.52;;;11.13;;
22883;SDS011;13386;24.786;110.488;2023-10-31T12:50:13;26.20;;;11.20;;
22883;SDS011;13386;24.786;110.488;2023-10-31T12:52:48;26.00;;;10.20;;
22883;SDS011;13386;24.786;110.488;2023-10-31T12:55:25;28.23;;;10.20;;
22883;SDS011;13386;24.786;110.488;2023-10-31T12:57:55;22.58;;;9.80;;
22883;SDS011;13386;24.786;110.488;2023-10-31T13:00:30;26.27;;;10.30;;
22883;SDS011;13386;24.786;110.488;2023-10-31T13:03:11;27.63;;;11.23;;
22883;SDS011;13386;24.786;110.488;2023-10-31T13:05:42;34.15;;;12.77;;
22883;SDS011;13386;24.786;110.488;2023-10-31T13:08:18;33.17;;;12.90;;
22883;SDS011;13386;24.786;110.488;2023-10-31T13:10:52;35.97;;;13.95;;
22883;SDS011;13386;24.786;110.488;2023-10-31T13:13:29;31.90;;;12.82;;
22883;SDS011;13386;24.786;110.488;2023-10-31T13:16:00;40.35;;;13.32;;
22883;SDS011;13386;24.786;110.488;2023-10-31T13:18:35;34.80;;;14.57;;
22883;SDS011;13386;24.786;110.488;2023-10-31T13:23:40;37.22;;;14.73;;
22883;SDS011;13386;24.786;110.488;2023-10-31T13:26:37;34.97;;;13.60;;
22883;SDS011;13386;24.786;110.488;2023-10-31T13:29:11;35.50;;;14.07;;
22883;SDS011;13386;24.786;110.488;2023-10-31T13:31:49;34.15;;;14.73;;
22883;SDS011;13386;24.786;110.488;2023-10-31T13:34:32;39.17;;;14.77;;
22883;SDS011;13386;24.786;110.488;2023-10-31T13:37:05;38.33;;;14.60;;
22883;SDS011;13386;24.786;110.488;2023-10-31T13:39:38;40.63;;;15.02;;
22883;SDS011;13386;24.786;110.488;2023-10-31T13:42:18;40.75;;;14.65;;
22883;SDS011;13386;24.786;110.488;2023-10-31T13:44:55;47.72;;;15.27;;
22883;SDS011;13386;24.786;110.488;2023-10-31T13:47:51;39.95;;;14.18;;
22883;SDS011;13386;24.786;110.488;2023-10-31T13:50:21;38.42;;;14.90;;
22883;SDS011;13386;24.786;110.488;2023-10-31T13:52:52;31.77;;;13.50;;
22883;SDS011;13386;24.786;110.488;2023-10-31T13:55:39;34.88;;;13.38;;
22883;SDS011;13386;24.786;110.488;2023-10-31T13:58:17;31.98;;;13.60;;
22883;SDS011;13386;24.786;110.488;2023-10-31T14:00:49;32.72;;;13.60;;
22883;SDS011;13386;24.786;110.488;2023-10-31T14:03:21;32.53;;;14.32;;
22883;SDS011;13386;24.786;110.488;2023-10-31T14:05:56;34.80;;;14.43;;
22883;SDS011;13386;24.786;110.488;2023-10-31T14:08:31;34.87;;;14.10;;
22883;SDS011;13386;24.786;110.488;2023-10-31T14:11:01;33.72;;;14.45;;
22883;SDS011;13386;24.786;110.488;2023-10-31T14:13:37;36.67;;;14.57;;
22883;SDS011;13386;24.786;110.488;2023-10-31T14:16:10;31.25;;;14.15;;
22883;SDS011;13386;24.786;110.488;2023-10-31T14:18:43;31.73;;;14.13;;
22883;SDS011;13386;24.786;110.488;2023-10-31T14:21:19;29.23;;;13.13;;
22883;SDS011;13386;24.786;110.488;2023-10-31T14:24:15;37.72;;;13.73;;
22883;SDS011;13386;24.786;110.488;2023-10-31T14:27:08;35.95;;;13.35;;
22883;SDS011;13386;24.786;110.488;2023-10-31T14:29:41;41.95;;;14.13;;
22883;SDS011;13386;24.786;110.488;2023-10-31T14:32:12;32.92;;;13.82;;
22883;SDS011;13386;24.786;110.488;2023-10-31T14:34:42;38.05;;;14.15;;
22883;SDS011;13386;24.786;110.488;2023-10-31T14:37:14;40.75;;;13.70;;
22883;SDS011;13386;24.786;110.488;2023-10-31T14:39:48;35.13;;;13.68;;
22883;SDS011;13386;24.786;110.488;2023-10-31T14:42:23;32.72;;;12.95;;
22883;SDS011;13386;24.786;110.488;2023-10-31T14:44:59;32.10;;;13.27;;